Time,TemperatureF,DewpointF,PressureIn,WindDirection,WindDirectionDegrees,WindSpeedMPH,WindSpeedGustMPH,Humidity,HourlyPrecipIn,Conditions,Clouds,dailyrainin,SoftwareType,DateUTC
2013-03-20 00:03:00,43.5,37.8,29.77,SSW,197,0.0,0.0,80,0.00,,SKC,0.00,VWS V12.07,2013-03-20 07:03:00,
2013-03-20 00:12:00,43.0,37.9,29.74,SW,234,17.0,23.0,82,0.00,,SKC,0.00,VWS V12.07,2013-03-20 07:12:00,
2013-03-20 00:22:00,43.0,38.2,29.73,SW,215,0.0,37.0,83,0.00,,SKC,0.00,VWS V12.07,2013-03-20 07:22:00,
2013-03-20 00:32:00,42.8,38.0,29.73,SSW,199,0.0,0.0,83,0.01,,SKC,0.01,VWS V12.07,2013-03-20 07:32:00,
2013-03-20 00:42:00,42.8,37.7,29.73,SW,220,0.0,30.0,82,0.01,,SKC,0.01,VWS V12.07,2013-03-20 07:42:00,
2013-03-20 00:52:00,43.1,38.0,29.71,SW,235,11.0,30.0,82,0.01,,SKC,0.01,VWS V12.07,2013-03-20 07:52:00,
2013-03-20 01:02:00,43.0,37.6,29.70,SW,227,25.0,28.0,81,0.01,,SKC,0.01,VWS V12.07,2013-03-20 08:02:00,
2013-03-20 01:22:00,42.9,37.5,29.70,WSW,239,0.0,30.0,81,0.01,,SKC,0.01,VWS V12.07,2013-03-20 08:22:00,
2013-03-20 01:32:00,42.9,37.8,29.70,SSW,209,14.0,30.0,82,0.00,,SKC,0.01,VWS V12.07,2013-03-20 08:32:00,
2013-03-20 01:42:00,43.0,37.6,29.68,SW,236,21.0,32.0,81,0.00,,SKC,0.01,VWS V12.07,2013-03-20 08:42:00,
2013-03-20 01:52:00,43.0,37.6,29.70,WSW,246,0.0,32.0,81,0.00,,SKC,0.01,VWS V12.07,2013-03-20 08:52:00,
2013-03-20 02:02:00,43.0,37.6,29.71,SW,222,0.0,17.0,81,0.00,,SKC,0.01,VWS V12.07,2013-03-20 09:02:00,
2013-03-20 02:12:00,43.0,37.9,29.70,SW,224,0.0,26.0,82,0.00,,SKC,0.01,VWS V12.07,2013-03-20 09:12:00,
2013-03-20 02:22:00,42.8,37.4,29.68,SW,220,18.0,26.0,81,0.00,,SKC,0.01,VWS V12.07,2013-03-20 09:22:00,
2013-03-20 02:32:00,42.8,38.0,29.68,WSW,239,0.0,18.0,83,0.00,,SKC,0.01,VWS V12.07,2013-03-20 09:32:00,
2013-03-20 02:42:00,42.8,37.7,29.69,SW,228,0.0,30.0,82,0.00,,SKC,0.01,VWS V12.07,2013-03-20 09:42:00,
2013-03-20 02:52:00,42.9,37.5,29.68,SW,228,22.0,31.0,81,0.00,,SKC,0.01,VWS V12.07,2013-03-20 09:52:00,
2013-03-20 03:02:00,42.9,37.2,29.68,SW,235,17.0,24.0,80,0.00,,SKC,0.01,VWS V12.07,2013-03-20 10:02:00,
2013-03-20 03:12:00,43.2,37.8,29.68,SW,218,0.0,25.0,81,0.00,,SKC,0.01,VWS V12.07,2013-03-20 10:12:00,
2013-03-20 03:22:00,43.0,37.6,29.67,SW,228,0.0,30.0,81,0.01,,SKC,0.02,VWS V12.07,2013-03-20 10:22:00,
2013-03-20 03:32:00,42.7,37.9,29.68,SSW,212,11.0,28.0,83,0.01,,SKC,0.02,VWS V12.07,2013-03-20 10:32:00,
2013-03-20 03:42:00,42.8,38.0,29.69,SW,230,0.0,28.0,83,0.01,,SKC,0.02,VWS V12.07,2013-03-20 10:42:00,
2013-03-20 04:03:00,42.8,38.0,29.68,SW,233,0.0,30.0,83,0.01,,SKC,0.02,VWS V12.07,2013-03-20 11:03:00,
2013-03-20 04:12:00,42.7,37.9,29.68,SSW,193,7.0,30.0,83,0.01,,SKC,0.02,VWS V12.07,2013-03-20 11:12:00,
2013-03-20 04:22:00,42.8,37.7,29.68,SSW,196,0.0,30.0,82,0.01,,SKC,0.02,VWS V12.07,2013-03-20 11:22:00,
2013-03-20 04:32:00,42.8,37.7,29.67,SW,234,0.0,21.0,82,0.00,,SKC,0.02,VWS V12.07,2013-03-20 11:32:00,
2013-03-20 04:42:00,42.8,37.7,29.67,WSW,239,18.0,32.0,82,0.00,,SKC,0.02,VWS V12.07,2013-03-20 11:42:00,
2013-03-20 04:52:00,42.8,37.4,29.67,SSW,211,0.0,32.0,81,0.00,,SKC,0.02,VWS V12.07,2013-03-20 11:52:00,
2013-03-20 05:02:00,42.7,37.3,29.67,SSW,210,0.0,29.0,81,0.00,,SKC,0.02,VWS V12.07,2013-03-20 12:02:00,
2013-03-20 05:12:00,42.9,37.5,29.67,WSW,255,0.0,29.0,81,0.00,,SKC,0.02,VWS V12.07,2013-03-20 12:12:00,
2013-03-20 05:22:00,42.7,37.3,29.67,SW,227,13.0,29.0,81,0.00,,SKC,0.02,VWS V12.07,2013-03-20 12:22:00,
2013-03-20 05:32:00,42.5,37.1,29.65,SSW,197,0.0,21.0,81,0.00,,SKC,0.02,VWS V12.07,2013-03-20 12:32:00,
2013-03-20 05:42:00,42.4,37.0,29.65,SSW,208,0.0,21.0,81,0.00,,SKC,0.02,VWS V12.07,2013-03-20 12:42:00,
2013-03-20 05:52:00,42.4,37.3,29.65,SSW,209,0.0,22.0,82,0.00,,SKC,0.02,VWS V12.07,2013-03-20 12:52:00,
2013-03-20 06:02:00,42.5,37.1,29.67,SW,224,20.0,23.0,81,0.00,,SKC,0.02,VWS V12.07,2013-03-20 13:02:00,
2013-03-20 06:12:00,42.5,37.1,29.66,South,180,0.0,23.0,81,0.00,,SKC,0.02,VWS V12.07,2013-03-20 13:12:00,
2013-03-20 06:22:00,42.5,36.8,29.65,SW,214,0.0,23.0,80,0.00,,SKC,0.02,VWS V12.07,2013-03-20 13:22:00,
2013-03-20 06:32:00,42.4,36.7,29.66,South,187,0.0,16.0,80,0.00,,SKC,0.02,VWS V12.07,2013-03-20 13:32:00,
2013-03-20 06:42:00,42.5,36.8,29.65,South,179,0.0,21.0,80,0.00,,SKC,0.02,VWS V12.07,2013-03-20 13:42:00,
2013-03-20 06:52:00,42.6,36.5,29.64,South,186,0.0,27.0,79,0.00,,SKC,0.02,VWS V12.07,2013-03-20 13:52:00,
2013-03-20 07:02:00,42.7,36.7,29.64,SSW,211,0.0,16.0,79,0.00,,SKC,0.02,VWS V12.07,2013-03-20 14:02:00,
2013-03-20 07:12:00,42.5,36.1,29.64,SW,222,10.0,23.0,78,0.00,,SKC,0.02,VWS V12.07,2013-03-20 14:12:00,
2013-03-20 07:32:00,42.9,36.5,29.64,SW,229,0.0,19.0,78,0.00,,SKC,0.02,VWS V12.07,2013-03-20 14:32:00,
2013-03-20 07:42:00,42.8,36.1,29.64,SW,215,0.0,25.0,77,0.00,,SKC,0.02,VWS V12.07,2013-03-20 14:42:00,
2013-03-20 07:52:00,42.8,36.1,29.64,SW,215,0.0,25.0,77,0.00,,SKC,0.02,VWS V12.07,2013-03-20 14:52:00,
2013-03-20 08:02:00,42.9,36.2,29.64,SSW,207,0.0,25.0,77,0.00,,SKC,0.02,VWS V12.07,2013-03-20 15:02:00,
2013-03-20 08:12:00,43.4,36.3,29.64,SW,219,18.0,34.0,76,0.00,,SKC,0.02,VWS V12.07,2013-03-20 15:12:00,
2013-03-20 08:22:00,43.4,36.3,29.64,SW,231,16.0,37.0,76,0.00,,SKC,0.02,VWS V12.07,2013-03-20 15:22:00,
2013-03-20 08:32:00,43.7,36.6,29.63,SSW,192,0.0,32.0,76,0.00,,SKC,0.02,VWS V12.07,2013-03-20 15:32:00,
2013-03-20 08:42:00,44.0,36.6,29.64,SSW,198,0.0,32.0,75,0.00,,SKC,0.02,VWS V12.07,2013-03-20 15:42:00,
2013-03-20 08:52:00,43.8,36.4,29.64,SSW,198,3.0,33.0,75,0.01,,SKC,0.03,VWS V12.07,2013-03-20 15:52:00,
2013-03-20 09:02:00,43.6,36.9,29.64,South,188,0.0,30.0,77,1.29,,SKC,1.31,VWS V12.07,2013-03-20 16:02:00,
2013-03-20 09:12:00,43.5,37.1,29.66,SSW,213,0.0,32.0,78,1.29,,SKC,1.31,VWS V12.07,2013-03-20 16:12:00,
2013-03-20 09:22:00,43.5,37.1,29.65,SSW,213,0.0,32.0,78,1.29,,SKC,1.31,VWS V12.07,2013-03-20 16:22:00,
2013-03-20 09:32:00,44.1,37.7,29.66,SSW,196,0.0,19.0,78,1.29,,SKC,1.31,VWS V12.07,2013-03-20 16:32:00,
2013-03-20 09:42:00,43.4,37.3,29.66,SSW,206,11.0,23.0,79,1.29,,SKC,1.32,VWS V12.07,2013-03-20 16:42:00,
2013-03-20 09:52:00,43.2,37.8,29.66,SSW,208,0.0,23.0,81,1.30,,SKC,1.32,VWS V12.07,2013-03-20 16:52:00,
2013-03-20 10:02:00,43.0,37.6,29.68,SSW,204,0.0,19.0,81,0.01,,SKC,1.32,VWS V12.07,2013-03-20 17:02:00,
2013-03-20 10:12:00,42.4,37.0,29.67,SW,219,0.0,30.0,81,0.02,,SKC,1.33,VWS V12.07,2013-03-20 17:12:00,
2013-03-20 10:22:00,42.1,37.3,29.66,SSW,198,14.0,30.0,83,0.03,,SKC,1.34,VWS V12.07,2013-03-20 17:22:00,
2013-03-20 10:32:00,42.3,37.5,29.66,SSW,202,0.0,20.0,83,0.03,,SKC,1.34,VWS V12.07,2013-03-20 17:32:00,
2013-03-20 10:42:00,42.6,37.8,29.66,SW,224,14.0,34.0,83,0.03,,SKC,1.34,VWS V12.07,2013-03-20 17:42:00,
2013-03-20 10:52:00,42.8,37.7,29.67,SW,217,10.0,34.0,82,0.03,,SKC,1.34,VWS V12.07,2013-03-20 17:52:00,
2013-03-20 11:02:00,43.0,37.9,29.67,South,188,0.0,26.0,82,0.02,,SKC,1.34,VWS V12.07,2013-03-20 18:02:00,
2013-03-20 11:12:00,42.8,37.4,29.67,SSW,212,10.0,32.0,81,0.03,,SKC,1.35,VWS V12.07,2013-03-20 18:12:00,
2013-03-20 11:22:00,43.0,37.3,29.71,WSW,247,11.0,32.0,80,0.03,,SKC,1.36,VWS V12.07,2013-03-20 18:22:00,
2013-03-20 11:32:00,40.5,34.5,29.71,West,277,17.0,24.0,79,0.05,,SKC,1.39,VWS V12.07,2013-03-20 18:32:00,
2013-03-20 11:42:00,40.0,35.0,29.73,West,274,6.0,24.0,82,0.06,,SKC,1.40,VWS V12.07,2013-03-20 18:42:00,
2013-03-20 11:52:00,40.4,35.7,29.73,West,264,7.0,24.0,83,0.06,,SKC,1.40,VWS V12.07,2013-03-20 18:52:00,
2013-03-20 12:02:00,40.4,35.3,29.74,NW,304,5.0,16.0,82,0.06,,SKC,1.40,VWS V12.07,2013-03-20 19:02:00,
2013-03-20 12:13:00,39.6,34.0,29.75,WNW,293,13.0,16.0,80,0.07,,SKC,1.41,VWS V12.07,2013-03-20 19:13:00,
2013-03-20 12:22:00,39.8,33.5,29.76,West,274,9.0,16.0,78,0.07,,SKC,1.41,VWS V12.07,2013-03-20 19:22:00,
2013-03-20 12:32:00,40.1,34.4,29.75,SW,234,5.0,7.0,80,0.03,,SKC,1.41,VWS V12.07,2013-03-20 19:32:00,
2013-03-20 12:42:00,41.3,34.7,29.74,SSW,210,0.0,14.0,77,0.03,,SKC,1.41,VWS V12.07,2013-03-20 19:42:00,
2013-03-20 12:52:00,41.2,34.5,29.75,South,177,4.0,14.0,77,0.03,,SKC,1.41,VWS V12.07,2013-03-20 19:52:00,
2013-03-20 13:02:00,41.5,33.8,29.74,WSW,258,0.0,14.0,74,0.01,,SKC,1.41,VWS V12.07,2013-03-20 20:02:00,
2013-03-20 13:12:00,42.1,33.0,29.76,SW,230,2.0,14.0,70,0.01,,SKC,1.41,VWS V12.07,2013-03-20 20:12:00,
2013-03-20 13:22:00,43.0,33.2,29.75,SW,224,8.0,14.0,68,0.01,,SKC,1.41,VWS V12.07,2013-03-20 20:22:00,
2013-03-20 13:32:00,44.1,30.3,29.75,West,274,23.0,28.0,58,0.00,,SKC,1.41,VWS V12.07,2013-03-20 20:32:00,
2013-03-20 13:42:00,44.6,29.9,29.77,WSW,251,9.0,28.0,56,0.00,,SKC,1.41,VWS V12.07,2013-03-20 20:42:00,
2013-03-20 13:52:00,43.5,32.2,29.77,West,278,14.0,28.0,64,0.00,,SKC,1.41,VWS V12.07,2013-03-20 20:52:00,
2013-03-20 14:02:00,42.1,29.6,29.76,WNW,292,0.0,29.0,61,0.00,,SKC,1.41,VWS V12.07,2013-03-20 21:02:00,
2013-03-20 14:12:00,42.6,29.3,29.75,West,271,5.0,29.0,59,0.00,,SKC,1.41,VWS V12.07,2013-03-20 21:12:00,
2013-03-20 14:22:00,43.5,29.7,29.76,WSW,240,17.0,29.0,58,0.00,,SKC,1.41,VWS V12.07,2013-03-20 21:22:00,
2013-03-20 14:33:00,43.3,28.2,29.76,West,267,16.0,30.0,55,0.00,,SKC,1.41,VWS V12.07,2013-03-20 21:33:00,
2013-03-20 14:42:00,43.0,28.4,29.76,West,268,9.0,32.0,56,0.00,,SKC,1.41,VWS V12.07,2013-03-20 21:42:00,
2013-03-20 14:52:00,42.7,29.0,29.77,WNW,286,25.0,32.0,58,0.00,,SKC,1.41,VWS V12.07,2013-03-20 21:52:00,
2013-03-20 15:02:00,42.1,28.0,29.77,West,268,0.0,25.0,57,0.00,,SKC,1.41,VWS V12.07,2013-03-20 22:02:00,
2013-03-20 15:12:00,41.7,27.2,29.77,WSW,250,18.0,41.0,56,0.00,,SKC,1.41,VWS V12.07,2013-03-20 22:12:00,
2013-03-20 15:22:00,41.8,24.5,29.79,West,268,9.0,41.0,50,0.00,,SKC,1.41,VWS V12.07,2013-03-20 22:22:00,
2013-03-20 15:32:00,42.4,23.6,29.78,WSW,250,0.0,16.0,47,0.00,,SKC,1.41,VWS V12.07,2013-03-20 22:32:00,
2013-03-20 15:42:00,42.3,23.5,29.78,West,263,16.0,30.0,47,0.00,,SKC,1.41,VWS V12.07,2013-03-20 22:42:00,
2013-03-20 15:52:00,40.7,27.1,29.81,WNW,291,0.0,36.0,58,0.00,,SKC,1.41,VWS V12.07,2013-03-20 22:52:00,
2013-03-20 16:02:00,39.2,27.3,29.81,WSW,251,0.0,20.0,62,0.00,,SKC,1.41,VWS V12.07,2013-03-20 23:02:00,
2013-03-20 16:12:00,39.1,27.6,29.81,NW,308,8.0,23.0,63,0.00,,SKC,1.41,VWS V12.07,2013-03-20 23:12:00,
2013-03-20 16:22:00,39.8,27.1,29.82,WNW,298,0.0,23.0,60,0.00,,SKC,1.41,VWS V12.07,2013-03-20 23:22:00,
2013-03-20 16:32:00,40.0,25.1,29.82,NW,313,16.0,24.0,55,0.00,,SKC,1.41,VWS V12.07,2013-03-20 23:32:00,
2013-03-20 16:42:00,39.4,25.9,29.82,NW,306,7.0,24.0,58,0.00,,SKC,1.41,VWS V12.07,2013-03-20 23:42:00,
2013-03-20 16:52:00,39.9,25.5,29.82,WSW,237,0.0,24.0,56,0.00,,SKC,1.41,VWS V12.07,2013-03-20 23:52:00,
2013-03-20 17:02:00,40.2,24.0,29.83,West,261,9.0,22.0,52,0.00,,SKC,1.41,VWS V12.07,2013-03-21 00:02:00,
2013-03-20 17:12:00,39.7,23.5,29.84,West,268,0.0,29.0,52,0.00,,SKC,1.41,VWS V12.07,2013-03-21 00:12:00,
2013-03-20 17:22:00,38.1,25.1,29.86,WNW,282,0.0,29.0,59,0.00,,SKC,1.41,VWS V12.07,2013-03-21 00:22:00,
2013-03-20 17:32:00,37.0,24.0,29.85,NW,322,12.0,25.0,59,0.00,,SKC,1.41,VWS V12.07,2013-03-21 00:32:00,
2013-03-20 17:42:00,37.3,24.7,29.87,West,264,5.0,25.0,60,0.00,,SKC,1.41,VWS V12.07,2013-03-21 00:42:00,
2013-03-20 17:52:00,37.9,22.8,29.85,WSW,258,18.0,25.0,54,0.00,,SKC,1.41,VWS V12.07,2013-03-21 00:52:00,
2013-03-20 18:02:00,37.5,21.9,29.87,WNW,291,14.0,17.0,53,0.00,,SKC,1.41,VWS V12.07,2013-03-21 01:02:00,
2013-03-20 18:12:00,36.5,23.1,29.87,NNW,327,0.0,24.0,58,0.00,,SKC,1.41,VWS V12.07,2013-03-21 01:12:00,
2013-03-20 18:22:00,35.7,22.8,29.88,West,265,0.0,24.0,59,0.00,,SKC,1.41,VWS V12.07,2013-03-21 01:22:00,
2013-03-20 18:32:00,34.7,23.4,29.86,WSW,251,0.0,12.0,63,0.00,,SKC,1.41,VWS V12.07,2013-03-21 01:32:00,
2013-03-20 18:42:00,34.5,23.2,29.89,West,267,8.0,12.0,63,0.00,,SKC,1.41,VWS V12.07,2013-03-21 01:42:00,
2013-03-20 18:52:00,34.3,22.6,29.90,WNW,282,1.0,13.0,62,0.00,,SKC,1.41,VWS V12.07,2013-03-21 01:52:00,
2013-03-20 19:02:00,34.3,20.7,29.90,WNW,285,3.0,10.0,57,0.00,,SKC,1.41,VWS V12.07,2013-03-21 02:02:00,
2013-03-20 19:12:00,34.1,20.1,29.89,West,279,3.0,16.0,56,0.00,,SKC,1.41,VWS V12.07,2013-03-21 02:12:00,
2013-03-20 19:22:00,34.0,19.5,29.90,WNW,299,2.0,16.0,55,0.00,,SKC,1.41,VWS V12.07,2013-03-21 02:22:00,
2013-03-20 19:32:00,33.8,19.8,29.91,WSW,248,0.0,10.0,56,0.00,,SKC,1.41,VWS V12.07,2013-03-21 02:32:00,
2013-03-20 19:42:00,33.6,19.6,29.92,West,263,0.0,15.0,56,0.00,,SKC,1.41,VWS V12.07,2013-03-21 02:42:00,
2013-03-20 19:52:00,33.0,19.0,29.91,WSW,252,5.0,15.0,56,0.00,,SKC,1.41,VWS V12.07,2013-03-21 02:52:00,
2013-03-20 20:02:00,32.7,18.8,29.93,West,270,16.0,16.0,56,0.00,,SKC,1.41,VWS V12.07,2013-03-21 03:02:00,
2013-03-20 20:12:00,32.2,21.4,29.93,West,271,6.0,21.0,64,0.00,,SKC,1.41,VWS V12.07,2013-03-21 03:12:00,
2013-03-20 20:23:00,31.4,21.7,29.93,WSW,254,9.0,21.0,67,0.00,,SKC,1.41,VWS V12.07,2013-03-21 03:23:00,
2013-03-20 20:32:00,31.4,21.7,29.93,West,270,0.0,13.0,67,0.00,,SKC,1.41,VWS V12.07,2013-03-21 03:32:00,
2013-03-20 20:42:00,31.8,20.7,29.94,West,272,11.0,18.0,63,0.00,,SKC,1.41,VWS V12.07,2013-03-21 03:42:00,
2013-03-20 20:52:00,31.7,20.2,29.94,West,275,18.0,21.0,62,0.00,,SKC,1.41,VWS V12.07,2013-03-21 03:52:00,
2013-03-20 21:02:00,31.8,19.9,29.93,West,263,10.0,14.0,61,0.00,,SKC,1.41,VWS V12.07,2013-03-21 04:02:00,
2013-03-20 21:12:00,31.9,18.4,29.94,West,269,16.0,24.0,57,0.00,,SKC,1.41,VWS V12.07,2013-03-21 04:12:00,
2013-03-20 21:22:00,31.9,18.0,29.95,West,266,9.0,24.0,56,0.00,,SKC,1.41,VWS V12.07,2013-03-21 04:22:00,
2013-03-20 21:32:00,31.9,18.0,29.97,West,277,9.0,25.0,56,0.00,,SKC,1.41,VWS V12.07,2013-03-21 04:32:00,
2013-03-20 21:42:00,31.8,18.3,29.98,WNW,289,0.0,25.0,57,0.00,,SKC,1.41,VWS V12.07,2013-03-21 04:42:00,
2013-03-20 21:52:00,31.3,18.6,29.98,West,275,8.0,25.0,59,0.00,,SKC,1.41,VWS V12.07,2013-03-21 04:52:00,
2013-03-20 22:02:00,31.0,18.8,29.97,West,273,1.0,5.0,60,0.00,,SKC,1.41,VWS V12.07,2013-03-21 05:02:00,
2013-03-20 22:12:00,30.5,19.8,29.99,West,269,0.0,9.0,64,0.00,,SKC,1.41,VWS V12.07,2013-03-21 05:12:00,
2013-03-20 22:22:00,30.6,19.5,29.97,WSW,253,5.0,11.0,63,0.00,,SKC,1.41,VWS V12.07,2013-03-21 05:22:00,
2013-03-20 22:32:00,31.0,19.5,29.98,WSW,254,5.0,8.0,62,0.00,,SKC,1.41,VWS V12.07,2013-03-21 05:32:00,
2013-03-20 22:42:00,31.3,18.6,29.98,West,265,4.0,13.0,59,0.00,,SKC,1.41,VWS V12.07,2013-03-21 05:42:00,
2013-03-20 22:52:00,31.1,18.9,29.99,WSW,255,4.0,13.0,60,0.00,,SKC,1.41,VWS V12.07,2013-03-21 05:52:00,
2013-03-20 23:02:00,31.3,19.0,30.01,West,263,0.0,8.0,60,0.00,,SKC,1.41,VWS V12.07,2013-03-21 06:02:00,
2013-03-20 23:12:00,30.8,18.6,30.00,WNW,284,9.0,12.0,60,0.00,,SKC,1.41,VWS V12.07,2013-03-21 06:12:00,
2013-03-20 23:22:00,30.8,17.0,30.01,WNW,289,4.0,13.0,56,0.00,,SKC,1.41,VWS V12.07,2013-03-21 06:22:00,
2013-03-20 23:32:00,30.9,16.6,30.01,West,278,7.0,14.0,55,0.00,,SKC,1.41,VWS V12.07,2013-03-21 06:32:00,
2013-03-20 23:42:00,30.6,15.9,30.02,West,269,12.0,14.0,54,0.00,,SKC,1.41,VWS V12.07,2013-03-21 06:42:00,
2013-03-20 23:52:00,30.6,15.5,30.02,West,265,12.0,14.0,53,0.00,,SKC,1.41,VWS V12.07,2013-03-21 06:52:00,